sensor_id;sensor_type;location;lat;lon;timestamp;pressure;altitude;pressure_sealevel;temperature;humidity
66381;BME280;53177;52.648;1.214;2023-11-19T00:00:20;99963.94;;;10.95;100.00
66381;BME280;53177;52.648;1.214;2023-11-19T00:02:45;99966.59;;;10.95;100.00
66381;BME280;53177;52.648;1.214;2023-11-19T00:05:12;99969.50;;;10.87;100.00
66381;BME280;53177;52.648;1.214;2023-11-19T00:07:39;99977.44;;;10.87;100.00
66381;BME280;53177;52.648;1.214;2023-11-19T00:10:13;99975.03;;;10.81;100.00
66381;BME280;53177;52.648;1.214;2023-11-19T00:12:43;99967.72;;;10.88;100.00
66381;BME280;53177;52.648;1.214;2023-11-19T00:15:10;99964.34;;;10.84;100.00
66381;BME280;53177;52.648;1.214;2023-11-19T00:17:39;99970.59;;;10.82;100.00
66381;BME280;53177;52.648;1.214;2023-11-19T00:20:16;99967.88;;;10.83;100.00
66381;BME280;53177;52.648;1.214;2023-11-19T00:22:43;99961.75;;;10.83;100.00
66381;BME280;53177;52.648;1.214;2023-11-19T00:25:09;99956.53;;;10.81;100.00
66381;BME280;53177;52.648;1.214;2023-11-19T00:27:35;99952.22;;;10.79;100.00
66381;BME280;53177;52.648;1.214;2023-11-19T00:30:00;99951.28;;;10.80;100.00
66381;BME280;53177;52.648;1.214;2023-11-19T00:32:26;99966.38;;;10.76;100.00
66381;BME280;53177;52.648;1.214;2023-11-19T00:34:51;99969.00;;;10.78;100.00
66381;BME280;53177;52.648;1.214;2023-11-19T00:37:17;99965.47;;;10.77;100.00
66381;BME280;53177;52.648;1.214;2023-11-19T00:39:42;99957.28;;;10.85;100.00
66381;BME280;53177;52.648;1.214;2023-11-19T00:42:09;99962.88;;;10.75;100.00
66381;BME280;53177;52.648;1.214;2023-11-19T00:44:35;99959.16;;;10.81;100.00
66381;BME280;53177;52.648;1.214;2023-11-19T00:47:01;99964.50;;;10.80;100.00
66381;BME280;53177;52.648;1.214;2023-11-19T00:49:26;99961.84;;;10.80;100.00
66381;BME280;53177;52.648;1.214;2023-11-19T00:51:52;99953.13;;;10.78;100.00
66381;BME280;53177;52.648;1.214;2023-11-19T00:54:17;99948.44;;;10.86;100.00
66381;BME280;53177;52.648;1.214;2023-11-19T00:56:42;99950.47;;;10.78;100.00
66381;BME280;53177;52.648;1.214;2023-11-19T00:59:08;99954.19;;;10.72;100.00
66381;BME280;53177;52.648;1.214;2023-11-19T01:01:33;99946.97;;;10.77;100.00
66381;BME280;53177;52.648;1.214;2023-11-19T01:03:59;99953.28;;;10.73;100.00
66381;BME280;53177;52.648;1.214;2023-11-19T01:06:30;99940.97;;;10.72;100.00
66381;BME280;53177;52.648;1.214;2023-11-19T01:08:56;99946.25;;;10.72;100.00
66381;BME280;53177;52.648;1.214;2023-11-19T01:11:25;99954.19;;;10.72;100.00
66381;BME280;53177;52.648;1.214;2023-11-19T01:13:51;99949.25;;;10.63;100.00
66381;BME280;53177;52.648;1.214;2023-11-19T01:16:17;99938.69;;;10.61;100.00
66381;BME280;53177;52.648;1.214;2023-11-19T01:18:44;99939.66;;;10.60;100.00
66381;BME280;53177;52.648;1.214;2023-11-19T01:21:09;99941.41;;;10.60;100.00
66381;BME280;53177;52.648;1.214;2023-11-19T01:23:35;99937.91;;;10.59;100.00
66381;BME280;53177;52.648;1.214;2023-11-19T01:26:00;99939.69;;;10.59;100.00
66381;BME280;53177;52.648;1.214;2023-11-19T01:28:26;99947.66;;;10.57;100.00
66381;BME280;53177;52.648;1.214;2023-11-19T01:30:52;99948.59;;;10.56;100.00
66381;BME280;53177;52.648;1.214;2023-11-19T01:33:17;99951.25;;;10.56;100.00
66381;BME280;53177;52.648;1.214;2023-11-19T01:35:43;99937.19;;;10.54;100.00
66381;BME280;53177;52.648;1.214;2023-11-19T01:38:08;99933.75;;;10.52;100.00
66381;BME280;53177;52.648;1.214;2023-11-19T01:40:34;99933.56;;;10.57;100.00
66381;BME280;53177;52.648;1.214;2023-11-19T01:43:01;99937.16;;;10.56;100.00
66381;BME280;53177;52.648;1.214;2023-11-19T01:45:28;99932.78;;;10.55;100.00
66381;BME280;53177;52.648;1.214;2023-11-19T01:47:56;99940.84;;;10.50;100.00
66381;BME280;53177;52.648;1.214;2023-11-19T01:50:23;99945.34;;;10.48;100.00
66381;BME280;53177;52.648;1.214;2023-11-19T01:52:52;99933.28;;;10.41;100.00
66381;BME280;53177;52.648;1.214;2023-11-19T01:55:21;99929.97;;;10.35;100.00
66381;BME280;53177;52.648;1.214;2023-11-19T01:57:48;99931.69;;;10.36;100.00
66381;BME280;53177;52.648;1.214;2023-11-19T02:00:15;99940.63;;;10.32;100.00
66381;BME280;53177;52.648;1.214;2023-11-19T02:02:42;99934.59;;;10.28;100.00
66381;BME280;53177;52.648;1.214;2023-11-19T02:05:10;99939.97;;;10.25;100.00
66381;BME280;53177;52.648;1.214;2023-11-19T02:07:37;99932.13;;;10.23;100.00
66381;BME280;53177;52.648;1.214;2023-11-19T02:10:02;99926.88;;;10.22;100.00
66381;BME280;53177;52.648;1.214;2023-11-19T02:12:31;99936.63;;;10.20;100.00
66381;BME280;53177;52.648;1.214;2023-11-19T02:14:59;99936.47;;;10.24;100.00
66381;BME280;53177;52.648;1.214;2023-11-19T02:17:34;99918.69;;;10.30;100.00
66381;BME280;53177;52.648;1.214;2023-11-19T02:20:05;99910.13;;;10.23;100.00
66381;BME280;53177;52.648;1.214;2023-11-19T02:22:34;99910.16;;;10.21;100.00
66381;BME280;53177;52.648;1.214;2023-11-19T02:25:04;99907.63;;;10.18;100.00
66381;BME280;53177;52.648;1.214;2023-11-19T02:27:49;99915.56;;;10.18;100.00
66381;BME280;53177;52.648;1.214;2023-11-19T02:30:17;99919.94;;;10.19;100.00
66381;BME280;53177;52.648;1.214;2023-11-19T02:32:43;99924.38;;;10.17;100.00
66381;BME280;53177;52.648;1.214;2023-11-19T02:35:08;99913.66;;;10.22;100.00
66381;BME280;53177;52.648;1.214;2023-11-19T02:37:34;99928.69;;;10.20;100.00
66381;BME280;53177;52.648;1.214;2023-11-19T02:39:59;99933.22;;;10.16;100.00
66381;BME280;53177;52.648;1.214;2023-11-19T02:42:28;99923.59;;;10.14;100.00
66381;BME280;53177;52.648;1.214;2023-11-19T02:44:53;99925.44;;;10.12;100.00
66381;BME280;53177;52.648;1.214;2023-11-19T02:47:18;99920.16;;;10.12;100.00
66381;BME280;53177;52.648;1.214;2023-11-19T02:49:46;99934.16;;;10.14;100.00
66381;BME280;53177;52.648;1.214;2023-11-19T02:52:13;99935.94;;;10.15;100.00
66381;BME280;53177;52.648;1.214;2023-11-19T02:54:39;99939.56;;;10.11;100.00
66381;BME280;53177;52.648;1.214;2023-11-19T02:57:07;99936.00;;;10.12;100.00
66381;BME280;53177;52.648;1.214;2023-11-19T02:59:37;99938.56;;;10.15;100.00
66381;BME280;53177;52.648;1.214;2023-11-19T03:02:07;99941.06;;;10.19;100.00
66381;BME280;53177;52.648;1.214;2023-11-19T03:04:37;99935.03;;;10.16;100.00
66381;BME280;53177;52.648;1.214;2023-11-19T03:07:05;99929.78;;;10.13;100.00
66381;BME280;53177;52.648;1.214;2023-11-19T03:09:30;99924.56;;;10.11;100.00
66381;BME280;53177;52.648;1.214;2023-11-19T03:11:56;99925.03;;;10.24;100.00
66381;BME280;53177;52.648;1.214;2023-11-19T03:14:21;99915.47;;;10.20;100.00
66381;BME280;53177;52.648;1.214;2023-11-19T03:16:48;99902.44;;;10.15;100.00
66381;BME280;53177;52.648;1.214;2023-11-19T03:19:13;99919.97;;;10.18;100.00
66381;BME280;53177;52.648;1.214;2023-11-19T03:21:39;99910.28;;;10.18;100.00
66381;BME280;53177;52.648;1.214;2023-11-19T03:24:04;99906.78;;;10.16;100.00
66381;BME280;53177;52.648;1.214;2023-11-19T03:26:30;99914.47;;;10.24;100.00
66381;BME280;53177;52.648;1.214;2023-11-19T03:28:55;99912.53;;;10.29;100.00
66381;BME280;53177;52.648;1.214;2023-11-19T03:31:22;99918.84;;;10.25;100.00
66381;BME280;53177;52.648;1.214;2023-11-19T03:33:47;99923.09;;;10.29;100.00
66381;BME280;53177;52.648;1.214;2023-11-19T03:36:13;99918.91;;;10.23;100.00
66381;BME280;53177;52.648;1.214;2023-11-19T03:38:38;99917.38;;;10.16;100.00
66381;BME280;53177;52.648;1.214;2023-11-19T03:41:11;99919.22;;;10.14;100.00
66381;BME280;53177;52.648;1.214;2023-11-19T03:43:36;99900.50;;;10.20;100.00
66381;BME280;53177;52.648;1.214;2023-11-19T03:46:02;99904.13;;;10.18;100.00
66381;BME280;53177;52.648;1.214;2023-11-19T03:48:27;99909.38;;;10.19;100.00
66381;BME280;53177;52.648;1.214;2023-11-19T03:50:53;99922.72;;;10.13;100.00
66381;BME280;53177;52.648;1.214;2023-11-19T03:53:18;99916.53;;;10.16;100.00
66381;BME280;53177;52.648;1.214;2023-11-19T03:55:44;99925.25;;;10.18;100.00
66381;BME280;53177;52.648;1.214;2023-11-19T03:58:09;99914.53;;;10.22;100.00
66381;BME280;53177;52.648;1.214;2023-11-19T04:00:34;99904.13;;;10.18;100.00
66381;BME280;53177;52.648;1.214;2023-11-19T04:03:00;99919.06;;;10.19;100.00
66381;BME280;53177;52.648;1.214;2023-11-19T04:05:25;99918.31;;;10.15;100.00
66381;BME280;53177;52.648;1.214;2023-11-19T04:07:51;99928.06;;;10.12;100.00
66381;BME280;53177;52.648;1.214;2023-11-19T04:10:17;99919.44;;;10.07;100.00
66381;BME280;53177;52.648;1.214;2023-11-19T04:12:43;99911.53;;;10.05;100.00
66381;BME280;53177;52.648;1.214;2023-11-19T04:15:09;99915.22;;;10.01;100.00
66381;BME280;53177;52.648;1.214;2023-11-19T04:17:34;99906.50;;;9.98;100.00
66381;BME280;53177;52.648;1.214;2023-11-19T04:20:00;99908.34;;;9.96;100.00
66381;BME280;53177;52.648;1.214;2023-11-19T04:22:25;99917.91;;;10.00;100.00
66381;BME280;53177;52.648;1.214;2023-11-19T04:24:51;99905.56;;;10.00;100.00
66381;BME280;53177;52.648;1.214;2023-11-19T04:27:16;99916.06;;;10.02;100.00
66381;BME280;53177;52.648;1.214;2023-11-19T04:29:42;99918.97;;;9.94;100.00
66381;BME280;53177;52.648;1.214;2023-11-19T04:32:07;99919.19;;;9.88;100.00
66381;BME280;53177;52.648;1.214;2023-11-19T04:34:33;99914.50;;;9.96;100.00
66381;BME280;53177;52.648;1.214;2023-11-19T04:36:58;99919.78;;;9.96;100.00
66381;BME280;53177;52.648;1.214;2023-11-19T04:39:27;99908.50;;;9.91;100.00
66381;BME280;53177;52.648;1.214;2023-11-19T04:41:52;99898.03;;;9.88;100.00
66381;BME280;53177;52.648;1.214;2023-11-19T04:44:18;99907.88;;;9.83;100.00
66381;BME280;53177;52.648;1.214;2023-11-19T04:46:44;99909.00;;;9.76;100.00
66381;BME280;53177;52.648;1.214;2023-11-19T04:49:10;99905.50;;;9.75;100.00
66381;BME280;53177;52.648;1.214;2023-11-19T04:51:39;99905.50;;;9.75;100.00
66381;BME280;53177;52.648;1.214;2023-11-19T04:54:05;99898.50;;;9.74;100.00
66381;BME280;53177;52.648;1.214;2023-11-19T04:56:31;99892.41;;;9.72;100.00
66381;BME280;53177;52.648;1.214;2023-11-19T04:58:57;99896.03;;;9.68;100.00
66381;BME280;53177;52.648;1.214;2023-11-19T05:01:22;99890.84;;;9.67;100.00
66381;BME280;53177;52.648;1.214;2023-11-19T05:03:48;99887.31;;;9.66;100.00
66381;BME280;53177;52.648;1.214;2023-11-19T05:06:13;99899.72;;;9.64;100.00
66381;BME280;53177;52.648;1.214;2023-11-19T05:08:38;99894.44;;;9.64;100.00
66381;BME280;53177;52.648;1.214;2023-11-19T05:11:04;99904.06;;;9.65;100.00
66381;BME280;53177;52.648;1.214;2023-11-19T05:13:31;99889.06;;;9.67;100.00
66381;BME280;53177;52.648;1.214;2023-11-19T05:15:56;99906.09;;;9.57;100.00
66381;BME280;53177;52.648;1.214;2023-11-19T05:18:21;99892.84;;;9.59;100.00
66381;BME280;53177;52.648;1.214;2023-11-19T05:20:47;99901.56;;;9.61;100.00
66381;BME280;53177;52.648;1.214;2023-11-19T05:23:12;99897.16;;;9.61;100.00
66381;BME280;53177;52.648;1.214;2023-11-19T05:25:37;99885.34;;;9.73;100.00
66381;BME280;53177;52.648;1.214;2023-11-19T05:28:03;99887.88;;;9.76;100.00
66381;BME280;53177;52.648;1.214;2023-11-19T05:30:29;99891.47;;;9.75;100.00
66381;BME280;53177;52.648;1.214;2023-11-19T05:32:54;99891.34;;;9.78;100.00
66381;BME280;53177;52.648;1.214;2023-11-19T05:35:20;99900.94;;;9.81;100.00
66381;BME280;53177;52.648;1.214;2023-11-19T05:37:45;99908.66;;;9.87;100.00
66381;BME280;53177;52.648;1.214;2023-11-19T05:40:12;99898.16;;;9.85;100.00
66381;BME280;53177;52.648;1.214;2023-11-19T05:42:41;99903.19;;;9.93;100.00
66381;BME280;53177;52.648;1.214;2023-11-19T05:45:07;99900.28;;;10.00;100.00
66381;BME280;53177;52.648;1.214;2023-11-19T05:47:34;99902.56;;;10.11;100.00
66381;BME280;53177;52.648;1.214;2023-11-19T05:49:59;99899.06;;;10.10;100.00
66381;BME280;53177;52.648;1.214;2023-11-19T05:52:24;99898.94;;;10.13;100.00
66381;BME280;53177;52.648;1.214;2023-11-19T05:54:50;99901.59;;;10.15;100.00
66381;BME280;53177;52.648;1.214;2023-11-19T05:57:17;99899.06;;;10.10;100.00
66381;BME280;53177;52.648;1.214;2023-11-19T05:59:49;99901.81;;;10.07;100.00
66381;BME280;53177;52.648;1.214;2023-11-19T06:02:15;99899.94;;;10.11;100.00
66381;BME280;53177;52.648;1.214;2023-11-19T06:04:40;99900.19;;;10.03;100.00
66381;BME280;53177;52.648;1.214;2023-11-19T06:07:06;99904.75;;;9.98;100.00
66381;BME280;53177;52.648;1.214;2023-11-19T06:09:32;99904.09;;;9.92;100.00
66381;BME280;53177;52.648;1.214;2023-11-19T06:11:59;99899.63;;;9.94;100.00
66381;BME280;53177;52.648;1.214;2023-11-19T06:14:27;99896.28;;;9.89;100.00
66381;BME280;53177;52.648;1.214;2023-11-19T06:16:52;99895.50;;;9.85;100.00
66381;BME280;53177;52.648;1.214;2023-11-19T06:19:17;99899.06;;;9.84;100.00
66381;BME280;53177;52.648;1.214;2023-11-19T06:21:43;99905.34;;;9.80;100.00
66381;BME280;53177;52.648;1.214;2023-11-19T06:24:08;99913.47;;;9.74;100.00
66381;BME280;53177;52.648;1.214;2023-11-19T06:26:34;99916.25;;;9.69;100.00
66381;BME280;53177;52.648;1.214;2023-11-19T06:29:00;99915.47;;;9.67;100.00
66381;BME280;53177;52.648;1.214;2023-11-19T06:31:25;99907.66;;;9.64;100.00
66381;BME280;53177;52.648;1.214;2023-11-19T06:33:51;99919.28;;;9.57;100.00
66381;BME280;53177;52.648;1.214;2023-11-19T06:36:16;99916.50;;;9.62;100.00
66381;BME280;53177;52.648;1.214;2023-11-19T06:38:42;99918.28;;;9.61;100.00
66381;BME280;53177;52.648;1.214;2023-11-19T06:41:08;99928.94;;;9.58;100.00
66381;BME280;53177;52.648;1.214;2023-11-19T06:43:37;99915.84;;;9.55;100.00
66381;BME280;53177;52.648;1.214;2023-11-19T06:46:03;99931.44;;;9.63;100.00
66381;BME280;53177;52.648;1.214;2023-11-19T06:48:31;99920.78;;;9.66;100.00
66381;BME280;53177;52.648;1.214;2023-11-19T06:50:57;99924.25;;;9.68;100.00
66381;BME280;53177;52.648;1.214;2023-11-19T06:53:22;99926.03;;;9.67;100.00
66381;BME280;53177;52.648;1.214;2023-11-19T06:55:48;99919.66;;;9.73;100.00
66381;BME280;53177;52.648;1.214;2023-11-19T06:58:13;99924.94;;;9.73;100.00
66381;BME280;53177;52.648;1.214;2023-11-19T07:00:38;99925.00;;;9.71;100.00
66381;BME280;53177;52.648;1.214;2023-11-19T07:03:04;99926.78;;;9.71;100.00
66381;BME280;53177;52.648;1.214;2023-11-19T07:05:31;99911.75;;;9.73;100.00
66381;BME280;53177;52.648;1.214;2023-11-19T07:07:58;99911.56;;;9.79;100.00
66381;BME280;53177;52.648;1.214;2023-11-19T07:10:26;99915.13;;;9.78;100.00
66381;BME280;53177;52.648;1.214;2023-11-19T07:12:56;99918.56;;;9.80;100.00
66381;BME280;53177;52.648;1.214;2023-11-19T07:15:24;99912.38;;;9.81;100.00
66381;BME280;53177;52.648;1.214;2023-11-19T07:17:51;99930.81;;;9.83;100.00
66381;BME280;53177;52.648;1.214;2023-11-19T07:20:21;99929.88;;;9.84;100.00
66381;BME280;53177;52.648;1.214;2023-11-19T07:22:50;99928.00;;;9.87;100.00
66381;BME280;53177;52.648;1.214;2023-11-19T07:25:18;99919.81;;;9.95;100.00
66381;BME280;53177;52.648;1.214;2023-11-19T07:27:47;99931.31;;;9.94;100.00
66381;BME280;53177;52.648;1.214;2023-11-19T07:30:17;99932.09;;;9.97;100.00
66381;BME280;53177;52.648;1.214;2023-11-19T07:32:45;99941.81;;;9.95;100.00
66381;BME280;53177;52.648;1.214;2023-11-19T07:35:14;99923.41;;;9.94;100.00
66381;BME280;53177;52.648;1.214;2023-11-19T07:37:46;99921.59;;;9.94;100.00
66381;BME280;53177;52.648;1.214;2023-11-19T07:40:15;99921.56;;;9.96;100.00
66381;BME280;53177;52.648;1.214;2023-11-19T07:42:43;99932.78;;;10.02;100.00
66381;BME280;53177;52.648;1.214;2023-11-19T07:45:12;99944.31;;;10.00;100.00
66381;BME280;53177;52.648;1.214;2023-11-19T07:47:41;99949.63;;;9.98;100.00
66381;BME280;53177;52.648;1.214;2023-11-19T07:50:12;99960.13;;;10.01;100.00
66381;BME280;53177;52.648;1.214;2023-11-19T07:52:43;99952.03;;;10.06;100.00
66381;BME280;53177;52.648;1.214;2023-11-19T07:55:14;99945.88;;;10.05;100.00
66381;BME280;53177;52.648;1.214;2023-11-19T07:57:42;99937.91;;;10.07;100.00
66381;BME280;53177;52.648;1.214;2023-11-19T08:00:10;99939.75;;;10.05;100.00
66381;BME280;53177;52.648;1.214;2023-11-19T08:02:39;99945.06;;;10.05;100.00
66381;BME280;53177;52.648;1.214;2023-11-19T08:05:06;99938.91;;;10.04;100.00
66381;BME280;53177;52.648;1.214;2023-11-19T08:07:32;99941.72;;;9.98;100.00
66381;BME280;53177;52.648;1.214;2023-11-19T08:09:57;99942.69;;;9.96;100.00
66381;BME280;53177;52.648;1.214;2023-11-19T08:12:23;99943.59;;;9.95;100.00
66381;BME280;53177;52.648;1.214;2023-11-19T08:14:48;99947.06;;;9.97;100.00
66381;BME280;53177;52.648;1.214;2023-11-19T08:17:14;99945.34;;;9.96;100.00
66381;BME280;53177;52.648;1.214;2023-11-19T08:19:39;99941.66;;;10.01;100.00
66381;BME280;53177;52.648;1.214;2023-11-19T08:22:05;99940.72;;;10.02;100.00
66381;BME280;53177;52.648;1.214;2023-11-19T08:24:30;99934.47;;;10.05;100.00
66381;BME280;53177;52.648;1.214;2023-11-19T08:26:55;99935.94;;;10.15;100.00
66381;BME280;53177;52.648;1.214;2023-11-19T08:29:21;99923.59;;;10.15;100.00
66381;BME280;53177;52.648;1.214;2023-11-19T08:31:46;99926.00;;;10.21;100.00
66381;BME280;53177;52.648;1.214;2023-11-19T08:34:12;99919.81;;;10.22;100.00
66381;BME280;53177;52.648;1.214;2023-11-19T08:36:37;99919.59;;;10.29;100.00
66381;BME280;53177;52.648;1.214;2023-11-19T08:39:03;99927.53;;;10.29;100.00
66381;BME280;53177;52.648;1.214;2023-11-19T08:41:28;99920.47;;;10.29;100.00
66381;BME280;53177;52.648;1.214;2023-11-19T08:43:53;99931.78;;;10.33;100.00
66381;BME280;53177;52.648;1.214;2023-11-19T08:46:19;99929.78;;;10.39;100.00
66381;BME280;53177;52.648;1.214;2023-11-19T08:48:45;99936.84;;;10.39;100.00
66381;BME280;53177;52.648;1.214;2023-11-19T08:51:11;99939.47;;;10.40;100.00
66381;BME280;53177;52.648;1.214;2023-11-19T08:53:37;99936.72;;;10.43;100.00
66381;BME280;53177;52.648;1.214;2023-11-19T08:56:02;99935.09;;;10.39;100.00
66381;BME280;53177;52.648;1.214;2023-11-19T08:58:28;99933.31;;;10.40;100.00
66381;BME280;53177;52.648;1.214;2023-11-19T09:00:54;99946.66;;;10.35;100.00
66381;BME280;53177;52.648;1.214;2023-11-19T09:03:20;99944.72;;;10.42;100.00
66381;BME280;53177;52.648;1.214;2023-11-19T09:05:45;99953.13;;;10.53;100.00
66381;BME280;53177;52.648;1.214;2023-11-19T09:08:11;99955.69;;;10.54;100.00
66381;BME280;53177;52.648;1.214;2023-11-19T09:10:37;99952.94;;;10.57;100.00
66381;BME280;53177;52.648;1.214;2023-11-19T09:13:02;99956.16;;;10.67;100.00
66381;BME280;53177;52.648;1.214;2023-11-19T09:15:29;99947.88;;;10.76;100.00
66381;BME280;53177;52.648;1.214;2023-11-19T09:17:54;99956.16;;;10.90;100.00
66381;BME280;53177;52.648;1.214;2023-11-19T09:20:20;99951.75;;;10.91;100.00
66381;BME280;53177;52.648;1.214;2023-11-19T09:22:46;99951.47;;;10.98;100.00
66381;BME280;53177;52.648;1.214;2023-11-19T09:25:12;99952.88;;;11.08;100.00
66381;BME280;53177;52.648;1.214;2023-11-19T09:27:41;99947.28;;;11.16;100.00
66381;BME280;53177;52.648;1.214;2023-11-19T09:30:07;99946.19;;;11.21;100.00
66381;BME280;53177;52.648;1.214;2023-11-19T09:32:33;99949.00;;;11.17;100.00
66381;BME280;53177;52.648;1.214;2023-11-19T09:34:58;99947.97;;;11.21;100.00
66381;BME280;53177;52.648;1.214;2023-11-19T09:37:23;99950.91;;;11.37;100.00
66381;BME280;53177;52.648;1.214;2023-11-19T09:39:49;99946.69;;;11.31;100.00
66381;BME280;53177;52.648;1.214;2023-11-19T09:42:15;99951.19;;;11.29;100.00
66381;BME280;53177;52.648;1.214;2023-11-19T09:44:42;99953.84;;;11.29;100.00
66381;BME280;53177;52.648;1.214;2023-11-19T09:47:08;99949.00;;;11.40;100.00
66381;BME280;53177;52.648;1.214;2023-11-19T09:49:41;99961.09;;;11.47;100.00
66381;BME280;53177;52.648;1.214;2023-11-19T09:52:07;99959.31;;;11.48;100.00
66381;BME280;53177;52.648;1.214;2023-11-19T09:54:33;99961.03;;;11.49;100.00
66381;BME280;53177;52.648;1.214;2023-11-19T09:56:59;99956.53;;;11.51;100.00
66381;BME280;53177;52.648;1.214;2023-11-19T09:59:29;99954.19;;;11.43;100.00
66381;BME280;53177;52.648;1.214;2023-11-19T10:01:56;99960.63;;;11.36;100.00
66381;BME280;53177;52.648;1.214;2023-11-19T10:04:22;99964.16;;;11.37;100.00
66381;BME280;53177;52.648;1.214;2023-11-19T10:06:49;99953.59;;;11.35;100.00
66381;BME280;53177;52.648;1.214;2023-11-19T10:09:15;99948.84;;;11.45;100.00
66381;BME280;53177;52.648;1.214;2023-11-19T10:11:41;99942.00;;;11.61;100.00
66381;BME280;53177;52.648;1.214;2023-11-19T10:14:06;99951.38;;;11.71;99.48
66381;BME280;53177;52.648;1.214;2023-11-19T10:16:34;99941.03;;;11.63;99.26
66381;BME280;53177;52.648;1.214;2023-11-19T10:18:59;99950.81;;;11.61;98.71
66381;BME280;53177;52.648;1.214;2023-11-19T10:21:25;99943.66;;;11.87;97.90
66381;BME280;53177;52.648;1.214;2023-11-19T10:23:55;99948.09;;;11.86;96.88
66381;BME280;53177;52.648;1.214;2023-11-19T10:26:23;99956.28;;;11.80;97.14
66381;BME280;53177;52.648;1.214;2023-11-19T10:28:49;99947.72;;;11.74;97.33
66381;BME280;53177;52.648;1.214;2023-11-19T10:31:16;99952.16;;;11.73;97.36
66381;BME280;53177;52.648;1.214;2023-11-19T10:33:42;99935.28;;;11.76;97.61
66381;BME280;53177;52.648;1.214;2023-11-19T10:36:10;99944.25;;;11.71;97.76
66381;BME280;53177;52.648;1.214;2023-11-19T10:38:37;99937.81;;;11.79;97.46
66381;BME280;53177;52.648;1.214;2023-11-19T10:41:03;99926.22;;;11.81;97.38
66381;BME280;53177;52.648;1.214;2023-11-19T10:43:29;99925.63;;;11.75;97.63
66381;BME280;53177;52.648;1.214;2023-11-19T10:46:09;99921.81;;;11.82;96.63
66381;BME280;53177;52.648;1.214;2023-11-19T10:48:35;99913.78;;;11.83;97.36
66381;BME280;53177;52.648;1.214;2023-11-19T10:51:05;99913.47;;;11.91;94.37
66381;BME280;53177;52.648;1.214;2023-11-19T10:53:36;99907.53;;;12.06;94.13
66381;BME280;53177;52.648;1.214;2023-11-19T10:56:04;99909.72;;;12.16;93.88
66381;BME280;53177;52.648;1.214;2023-11-19T10:58:32;99903.88;;;12.30;93.44
66381;BME280;53177;52.648;1.214;2023-11-19T11:01:02;99908.63;;;12.22;91.36
66381;BME280;53177;52.648;1.214;2023-11-19T11:03:39;99904.09;;;12.24;92.37
66381;BME280;53177;52.648;1.214;2023-11-19T11:06:05;99902.84;;;12.12;91.99
66381;BME280;53177;52.648;1.214;2023-11-19T11:08:31;99898.53;;;12.10;94.00
66381;BME280;53177;52.648;1.214;2023-11-19T11:10:59;99903.84;;;12.10;93.55
66381;BME280;53177;52.648;1.214;2023-11-19T11:13:26;99902.41;;;12.01;94.10
66381;BME280;53177;52.648;1.214;2023-11-19T11:15:55;99897.00;;;12.04;94.45
66381;BME280;53177;52.648;1.214;2023-11-19T11:18:23;99897.25;;;11.98;95.82
66381;BME280;53177;52.648;1.214;2023-11-19T11:20:52;99904.22;;;12.01;96.07
66381;BME280;53177;52.648;1.214;2023-11-19T11:26:32;99893.22;;;11.90;95.41
66381;BME280;53177;52.648;1.214;2023-11-19T11:29:03;99886.91;;;11.92;97.74
66381;BME280;53177;52.648;1.214;2023-11-19T11:31:52;99886.00;;;11.93;94.92
66381;BME280;53177;52.648;1.214;2023-11-19T11:37:21;99873.41;;;11.98;96.42
66381;BME280;53177;52.648;1.214;2023-11-19T11:39:51;99878.50;;;12.03;95.36
66381;BME280;53177;52.648;1.214;2023-11-19T11:50:15;99845.94;;;12.21;94.08
66381;BME280;53177;52.648;1.214;2023-11-19T11:55:35;99854.94;;;12.17;96.50
66381;BME280;53177;52.648;1.214;2023-11-19T11:58:06;99855.13;;;12.12;95.73
66381;BME280;53177;52.648;1.214;2023-11-19T12:00:33;99849.09;;;12.09;94.92
66381;BME280;53177;52.648;1.214;2023-11-19T12:03:04;99856.31;;;12.05;95.68
66381;BME280;53177;52.648;1.214;2023-11-19T12:05:30;99844.84;;;12.05;95.98
66381;BME280;53177;52.648;1.214;2023-11-19T12:08:00;99845.81;;;12.04;96.02
66381;BME280;53177;52.648;1.214;2023-11-19T12:10:30;99837.03;;;12.02;95.91
66381;BME280;53177;52.648;1.214;2023-11-19T12:12:59;99833.19;;;12.09;95.79
66381;BME280;53177;52.648;1.214;2023-11-19T12:15:25;99835.94;;;12.07;96.20
66381;BME280;53177;52.648;1.214;2023-11-19T12:17:53;99839.44;;;12.08;95.86
66381;BME280;53177;52.648;1.214;2023-11-19T12:20:26;99837.56;;;12.10;95.47
66381;BME280;53177;52.648;1.214;2023-11-19T12:22:53;99832.41;;;12.07;95.82
66381;BME280;53177;52.648;1.214;2023-11-19T12:25:19;99833.13;;;12.10;95.45
66381;BME280;53177;52.648;1.214;2023-11-19T12:27:47;99824.03;;;12.16;96.24
66381;BME280;53177;52.648;1.214;2023-11-19T12:30:25;99822.34;;;12.15;97.06
66381;BME280;53177;52.648;1.214;2023-11-19T12:32:52;99824.13;;;12.14;96.36
66381;BME280;53177;52.648;1.214;2023-11-19T12:35:21;99818.84;;;12.14;96.39
66381;BME280;53177;52.648;1.214;2023-11-19T12:37:49;99826.69;;;12.16;96.46
66381;BME280;53177;52.648;1.214;2023-11-19T12:40:17;99823.28;;;12.14;96.62
66381;BME280;53177;52.648;1.214;2023-11-19T12:42:47;99813.44;;;12.16;96.69
66381;BME280;53177;52.648;1.214;2023-11-19T12:45:14;99813.53;;;12.14;96.57
66381;BME280;53177;52.648;1.214;2023-11-19T12:47:42;99818.03;;;12.12;97.75
66381;BME280;53177;52.648;1.214;2023-11-19T12:50:09;99799.59;;;12.09;98.14
66381;BME280;53177;52.648;1.214;2023-11-19T12:52:35;99817.28;;;12.09;97.79
66381;BME280;53177;52.648;1.214;2023-11-19T12:55:02;99812.94;;;12.08;97.36
66381;BME280;53177;52.648;1.214;2023-11-19T12:57:41;99807.56;;;12.09;97.84
66381;BME280;53177;52.648;1.214;2023-11-19T13:00:19;99796.22;;;12.06;97.82
66381;BME280;53177;52.648;1.214;2023-11-19T13:02:50;99798.97;;;12.04;98.68
66381;BME280;53177;52.648;1.214;2023-11-19T13:05:29;99799.94;;;12.02;98.97
66381;BME280;53177;52.648;1.214;2023-11-19T13:08:09;99798.56;;;11.93;100.00
66381;BME280;53177;52.648;1.214;2023-11-19T13:10:56;99804.09;;;11.87;100.00